Amorgos, Greece
Current Conditions -  °F | °C
As of 9:50 PM on Tuesday 25 Nov 2014 (Local Time) from LGHI Reporting Station
Scattered Clouds Scattered Clouds  
Wind Chill: 50°   Ceiling: Unl
Heat Index: 50°   Visibility: 6mi
Dew Point: 37°   Wind: 12mph
Humidity: 62%   Direction: 350°N
Pressure: 30.09"   Gusts: NA
Location:  38.83°N, 25.9°E
Report Text: LGHI 251850Z 35010KT 9999 SCT025 10/03 Q1019
Loading
Personal Weather Stations






























Interactive Weather Map New forecast layout! Learn more

10-Day Weather Forecast

Advertisements
Track Severe Weather on mobile